Time;durP1;ratioP1;P1;durP2;ratioP2;P2;SDS_P1;SDS_P2;PMS_P1;PMS_P2;Temp;Humidity;BMP_temperature;BMP_pressure;BME280_temperature;BME280_humidity;BME280_pressure;Samples;Min_cycle;Max_cycle;Signal;HPM_P1;HPM_P2
2022/06/16 00:01:14;;;;;;;15.17;3.90;;;;;;;;;;5052264;28;20443;-81
2022/06/16 00:03:41;;;;;;;19.83;4.73;;;;;;;;;;5051501;28;20468;-81
2022/06/16 00:06:09;;;;;;;15.00;3.90;;;;;;;;;;5052083;28;21038;-81
2022/06/16 00:08:36;;;;;;;16.17;4.50;;;;;;;;;;5051890;28;20447;-80
2022/06/16 00:11:19;;;;;;;21.57;4.13;;;;;;;;;;5051990;28;20486;-81
2022/06/16 00:13:51;;;;;;;22.30;4.80;;;;;;;;;;5052092;28;20446;-81
2022/06/16 00:16:18;;;;;;;15.37;4.20;;;;;;;;;;5052026;28;20449;-81
2022/06/16 00:18:46;;;;;;;23.63;5.10;;;;;;;;;;5052020;28;20431;-81
2022/06/16 00:21:14;;;;;;;20.10;4.33;;;;;;;;;;5051867;28;20446;-80
2022/06/16 00:23:41;;;;;;;20.27;5.60;;;;;;;;;;5052016;28;20443;-81
2022/06/16 00:26:11;;;;;;;23.70;5.00;;;;;;;;;;5051613;28;20492;-81
2022/06/16 00:28:40;;;;;;;16.50;4.13;;;;;;;;;;5051916;28;20451;-80
2022/06/16 00:31:12;;;;;;;15.13;4.17;;;;;;;;;;5052333;28;20428;-81
2022/06/16 00:33:39;;;;;;;16.43;4.60;;;;;;;;;;5051477;28;20443;-81
2022/06/16 00:36:07;;;;;;;15.73;4.40;;;;;;;;;;5051946;28;20471;-81
2022/06/16 00:38:35;;;;;;;17.83;4.10;;;;;;;;;;5051834;28;20436;-81
2022/06/16 00:41:02;;;;;;;21.90;4.10;;;;;;;;;;5051741;28;20451;-81
2022/06/16 00:43:30;;;;;;;23.40;4.60;;;;;;;;;;5054189;28;20453;-81
2022/06/16 00:46:00;;;;;;;21.33;4.77;;;;;;;;;;5055777;28;20845;-80
2022/06/16 00:48:31;;;;;;;20.43;4.73;;;;;;;;;;5047664;28;20459;-81
2022/06/16 00:51:02;;;;;;;20.33;4.10;;;;;;;;;;5041049;28;20455;-81
2022/06/16 00:53:30;;;;;;;18.17;4.23;;;;;;;;;;5035774;28;20453;-80
2022/06/16 00:55:58;;;;;;;20.00;4.83;;;;;;;;;;5035779;28;20445;-81
2022/06/16 00:58:27;;;;;;;16.40;5.23;;;;;;;;;;5035763;28;20452;-81
2022/06/16 01:00:54;;;;;;;16.53;3.93;;;;;;;;;;5035635;28;20530;-81
2022/06/16 01:06:24;;;;;;;15.70;3.67;;;;;;;;;;5035629;28;20855;-79
2022/06/16 01:08:53;;;;;;;15.03;4.17;;;;;;;;;;5035443;28;20835;-79
2022/06/16 01:14:13;;;;;;;15.70;4.10;;;;;;;;;;5035264;28;20491;-79
2022/06/16 01:16:45;;;;;;;17.60;4.10;;;;;;;;;;5035342;28;20451;-79
2022/06/16 01:19:16;;;;;;;16.43;4.17;;;;;;;;;;5035424;28;21045;-79
2022/06/16 01:21:51;;;;;;;19.17;4.97;;;;;;;;;;5035087;28;20584;-79
2022/06/16 01:24:29;;;;;;;16.93;4.60;;;;;;;;;;5035443;28;20455;-79
2022/06/16 01:27:12;;;;;;;17.40;4.93;;;;;;;;;;5035210;28;20472;-79
2022/06/16 01:29:43;;;;;;;18.50;4.13;;;;;;;;;;5034981;28;20456;-78
2022/06/16 01:32:14;;;;;;;21.00;4.40;;;;;;;;;;5035181;28;20441;-78
2022/06/16 01:34:46;;;;;;;15.47;4.07;;;;;;;;;;5035011;28;20448;-78
2022/06/16 01:37:16;;;;;;;15.20;4.00;;;;;;;;;;5035139;28;20451;-79
2022/06/16 01:39:47;;;;;;;18.20;5.27;;;;;;;;;;5034929;28;20437;-80
2022/06/16 01:42:17;;;;;;;21.57;4.77;;;;;;;;;;5034855;28;20459;-81
2022/06/16 01:44:47;;;;;;;17.20;3.57;;;;;;;;;;5034884;28;20451;-81
2022/06/16 01:47:16;;;;;;;13.40;4.23;;;;;;;;;;5034867;28;20487;-81
2022/06/16 01:49:47;;;;;;;18.00;5.33;;;;;;;;;;5034620;28;20441;-80
2022/06/16 01:52:18;;;;;;;15.20;5.00;;;;;;;;;;5035192;28;20470;-80
2022/06/16 01:54:48;;;;;;;18.00;3.93;;;;;;;;;;5034458;28;20498;-81
2022/06/16 01:57:18;;;;;;;14.73;4.47;;;;;;;;;;5034538;28;20445;-80
2022/06/16 01:59:52;;;;;;;19.43;5.43;;;;;;;;;;5034371;28;20964;-81
2022/06/16 02:02:20;;;;;;;18.93;4.37;;;;;;;;;;5034730;28;20840;-81
2022/06/16 02:04:49;;;;;;;22.20;4.20;;;;;;;;;;5034691;28;20852;-81
2022/06/16 02:07:22;;;;;;;19.63;4.83;;;;;;;;;;5034227;28;20480;-80
2022/06/16 02:09:51;;;;;;;19.57;5.20;;;;;;;;;;5034279;28;20443;-81
2022/06/16 02:15:07;;;;;;;16.90;4.70;;;;;;;;;;5033940;28;20476;-81
2022/06/16 02:17:35;;;;;;;22.07;5.30;;;;;;;;;;5033866;28;20454;-80
2022/06/16 02:20:02;;;;;;;15.93;4.30;;;;;;;;;;5034342;28;20456;-81
2022/06/16 02:22:31;;;;;;;18.53;4.80;;;;;;;;;;5034041;28;20965;-81
2022/06/16 02:24:59;;;;;;;17.87;5.30;;;;;;;;;;5034119;28;20522;-82
2022/06/16 02:27:26;;;;;;;27.70;4.73;;;;;;;;;;5034223;28;20483;-81
2022/06/16 02:29:54;;;;;;;16.20;4.03;;;;;;;;;;5033678;28;20443;-81
2022/06/16 02:32:31;;;;;;;23.80;5.00;;;;;;;;;;5033956;28;20439;-80
2022/06/16 02:35:01;;;;;;;19.93;4.57;;;;;;;;;;5034445;28;20450;-81
2022/06/16 02:37:38;;;;;;;14.40;4.17;;;;;;;;;;5033962;28;20815;-81
2022/06/16 02:40:16;;;;;;;14.83;4.37;;;;;;;;;;5033777;28;20524;-81
2022/06/16 02:42:49;;;;;;;31.07;6.90;;;;;;;;;;5033648;28;20449;-80
2022/06/16 02:45:22;;;;;;;15.63;4.30;;;;;;;;;;5033987;28;20538;-81
2022/06/16 02:47:57;;;;;;;17.63;5.30;;;;;;;;;;5033360;28;20480;-81
2022/06/16 02:50:30;;;;;;;23.07;4.80;;;;;;;;;;5034156;28;20447;-81
2022/06/16 02:53:04;;;;;;;19.93;3.80;;;;;;;;;;5033632;28;20437;-81
2022/06/16 02:55:35;;;;;;;26.27;5.03;;;;;;;;;;5033582;28;20436;-80
2022/06/16 02:58:03;;;;;;;16.63;4.67;;;;;;;;;;5033669;28;20442;-81
2022/06/16 03:00:32;;;;;;;18.10;4.80;;;;;;;;;;5033319;28;20453;-81
2022/06/16 03:03:16;;;;;;;18.40;4.60;;;;;;;;;;5033262;28;20491;-81
2022/06/16 03:05:43;;;;;;;20.67;5.80;;;;;;;;;;5032445;28;20455;-81
2022/06/16 03:08:11;;;;;;;15.43;5.27;;;;;;;;;;5033417;28;20568;-81
2022/06/16 03:10:54;;;;;;;16.20;4.53;;;;;;;;;;5032954;28;20452;-79
2022/06/16 03:13:22;;;;;;;15.17;4.80;;;;;;;;;;5033326;28;20444;-81
2022/06/16 03:15:51;;;;;;;18.00;5.07;;;;;;;;;;5032886;28;20448;-81
2022/06/16 03:18:20;;;;;;;20.07;5.27;;;;;;;;;;5033083;28;20443;-80
2022/06/16 03:20:47;;;;;;;18.47;4.67;;;;;;;;;;5033379;28;20471;-81
2022/06/16 03:23:15;;;;;;;15.67;4.67;;;;;;;;;;5033336;28;20455;-81
2022/06/16 03:25:43;;;;;;;17.47;5.30;;;;;;;;;;5032743;28;20455;-81
2022/06/16 03:28:11;;;;;;;19.33;4.93;;;;;;;;;;5032813;28;20484;-81
2022/06/16 03:30:40;;;;;;;19.00;5.20;;;;;;;;;;5032882;28;20441;-81
2022/06/16 03:33:08;;;;;;;19.90;5.37;;;;;;;;;;5032864;28;20447;-81
2022/06/16 03:35:37;;;;;;;14.83;4.70;;;;;;;;;;5032547;28;20831;-80
2022/06/16 03:38:05;;;;;;;14.73;4.63;;;;;;;;;;5032778;28;20595;-81
2022/06/16 03:40:32;;;;;;;17.03;5.40;;;;;;;;;;5032646;28;20449;-81
2022/06/16 03:43:00;;;;;;;17.30;4.30;;;;;;;;;;5032808;28;20459;-80
2022/06/16 03:45:28;;;;;;;18.83;6.03;;;;;;;;;;5032519;28;20467;-81
2022/06/16 03:47:56;;;;;;;17.83;4.97;;;;;;;;;;5032634;28;20484;-81
2022/06/16 03:50:23;;;;;;;13.00;4.20;;;;;;;;;;5032419;28;20445;-82
2022/06/16 03:52:52;;;;;;;15.07;4.27;;;;;;;;;;5032245;28;20821;-81
2022/06/16 03:55:19;;;;;;;16.23;4.47;;;;;;;;;;5032295;28;20447;-81
2022/06/16 03:57:47;;;;;;;18.73;5.07;;;;;;;;;;5032105;28;20437;-81
2022/06/16 04:00:15;;;;;;;13.90;4.10;;;;;;;;;;5032495;28;20440;-81
2022/06/16 04:02:42;;;;;;;13.03;4.27;;;;;;;;;;5032229;28;20470;-81
2022/06/16 04:05:09;;;;;;;17.40;4.67;;;;;;;;;;5031686;28;20455;-80
2022/06/16 04:07:37;;;;;;;16.10;4.73;;;;;;;;;;5037886;28;20480;-81
2022/06/16 04:10:07;;;;;;;16.13;4.67;;;;;;;;;;5041162;28;20964;-80
2022/06/16 04:12:34;;;;;;;14.70;4.13;;;;;;;;;;5042678;28;20543;-81
2022/06/16 04:15:02;;;;;;;21.13;5.73;;;;;;;;;;5041486;28;20433;-81
2022/06/16 04:17:30;;;;;;;15.40;4.10;;;;;;;;;;5039328;28;20486;-81
2022/06/16 04:20:13;;;;;;;18.37;5.00;;;;;;;;;;5041620;28;20438;-77
2022/06/16 04:22:41;;;;;;;16.67;4.80;;;;;;;;;;5031597;28;20448;-82
2022/06/16 04:25:13;;;;;;;20.10;4.32;;;;;;;;;;5031163;28;20436;-80
2022/06/16 04:27:40;;;;;;;22.70;5.93;;;;;;;;;;5031080;28;20660;-79
2022/06/16 04:30:08;;;;;;;15.57;3.37;;;;;;;;;;5032061;28;20812;-79
2022/06/16 04:32:37;;;;;;;15.40;3.80;;;;;;;;;;5032067;28;20444;-81
2022/06/16 04:35:04;;;;;;;21.60;5.63;;;;;;;;;;5031870;28;20443;-76
2022/06/16 04:37:32;;;;;;;14.20;3.50;;;;;;;;;;5031580;28;20440;-77
2022/06/16 04:40:00;;;;;;;14.13;3.40;;;;;;;;;;5033760;28;20447;-82
2022/06/16 04:42:29;;;;;;;18.03;3.60;;;;;;;;;;5037317;28;20447;-78
2022/06/16 04:44:56;;;;;;;14.03;3.60;;;;;;;;;;5031572;28;20966;-79
2022/06/16 04:47:23;;;;;;;20.47;4.20;;;;;;;;;;5031651;28;20473;-78
2022/06/16 04:49:52;;;;;;;17.93;3.27;;;;;;;;;;5031417;28;21059;-80
2022/06/16 04:52:19;;;;;;;16.10;3.80;;;;;;;;;;5045867;28;20487;-78
2022/06/16 04:54:47;;;;;;;21.70;4.00;;;;;;;;;;5060255;28;20486;-79
2022/06/16 04:57:15;;;;;;;13.13;3.40;;;;;;;;;;5063325;28;20474;-75
2022/06/16 04:59:44;;;;;;;17.27;4.57;;;;;;;;;;5030029;28;20457;-74
2022/06/16 05:02:12;;;;;;;17.30;3.63;;;;;;;;;;5030780;28;20440;-74
2022/06/16 05:04:42;;;;;;;15.60;3.57;;;;;;;;;;5028851;28;20437;-72
2022/06/16 05:07:09;;;;;;;15.80;3.50;;;;;;;;;;5029836;28;20472;-73
2022/06/16 05:09:37;;;;;;;24.70;5.93;;;;;;;;;;5030926;28;20467;-73
2022/06/16 05:12:05;;;;;;;15.50;4.07;;;;;;;;;;5029153;28;20473;-72
2022/06/16 05:14:32;;;;;;;16.50;3.57;;;;;;;;;;5029380;28;20443;-72
2022/06/16 05:17:01;;;;;;;17.03;4.30;;;;;;;;;;5029327;28;20437;-73
2022/06/16 05:19:30;;;;;;;15.63;4.03;;;;;;;;;;5029607;28;20451;-73
2022/06/16 05:22:00;;;;;;;16.63;4.00;;;;;;;;;;5029382;28;20443;-72
2022/06/16 05:24:29;;;;;;;16.00;3.70;;;;;;;;;;5030615;28;20488;-72
2022/06/16 05:26:56;;;;;;;15.80;3.83;;;;;;;;;;5031513;28;20459;-73
2022/06/16 05:29:23;;;;;;;16.30;4.17;;;;;;;;;;5033275;28;20442;-73
2022/06/16 05:31:51;;;;;;;16.60;3.70;;;;;;;;;;5035112;28;20445;-73
2022/06/16 05:34:20;;;;;;;21.90;3.87;;;;;;;;;;5035610;28;20433;-73
2022/06/16 05:36:47;;;;;;;15.70;3.50;;;;;;;;;;5035237;28;20440;-73
2022/06/16 05:39:14;;;;;;;15.63;4.27;;;;;;;;;;5034945;28;21052;-73
2022/06/16 05:41:43;;;;;;;15.27;3.97;;;;;;;;;;5034863;28;20441;-73
2022/06/16 05:44:10;;;;;;;17.07;3.93;;;;;;;;;;5035057;28;20455;-73
2022/06/16 05:46:40;;;;;;;13.47;3.80;;;;;;;;;;5034854;28;20437;-73
2022/06/16 05:49:07;;;;;;;16.50;4.17;;;;;;;;;;5035264;28;20538;-72
2022/06/16 05:51:36;;;;;;;16.10;4.30;;;;;;;;;;5034730;28;20437;-72
2022/06/16 05:54:04;;;;;;;16.27;3.70;;;;;;;;;;5034914;28;20447;-73
2022/06/16 05:56:31;;;;;;;13.87;3.60;;;;;;;;;;5034671;28;20436;-73
2022/06/16 05:58:59;;;;;;;21.60;3.83;;;;;;;;;;5034822;28;20511;-73
2022/06/16 06:01:26;;;;;;;16.47;3.83;;;;;;;;;;5034822;28;20811;-72
2022/06/16 06:03:53;;;;;;;18.60;3.27;;;;;;;;;;5034565;28;20456;-73
2022/06/16 06:06:21;;;;;;;13.07;2.90;;;;;;;;;;5034575;28;20441;-73
2022/06/16 06:17:21;;;;;;;16.57;3.67;;;;;;;;;;5027867;28;20451;-71
2022/06/16 06:19:48;;;;;;;17.43;4.30;;;;;;;;;;5033963;28;20439;-72
2022/06/16 06:22:19;;;;;;;13.20;2.70;;;;;;;;;;5034360;28;20443;-72
2022/06/16 06:24:48;;;;;;;15.17;3.20;;;;;;;;;;5034256;28;20483;-72
2022/06/16 06:27:17;;;;;;;14.37;3.00;;;;;;;;;;5034093;28;20440;-73
2022/06/16 06:29:47;;;;;;;14.97;3.40;;;;;;;;;;5033972;28;20438;-73
2022/06/16 06:32:15;;;;;;;15.07;3.27;;;;;;;;;;5034006;28;20452;-72
2022/06/16 06:34:42;;;;;;;15.57;2.87;;;;;;;;;;5033967;28;20440;-72
2022/06/16 06:37:11;;;;;;;17.73;3.27;;;;;;;;;;5034071;28;20451;-73
2022/06/16 06:39:39;;;;;;;13.93;2.90;;;;;;;;;;5033579;28;20440;-73
2022/06/16 06:42:08;;;;;;;19.13;3.60;;;;;;;;;;5033168;28;20448;-72
2022/06/16 06:44:36;;;;;;;15.93;2.80;;;;;;;;;;5033832;28;20445;-72
2022/06/16 06:47:04;;;;;;;15.87;3.10;;;;;;;;;;5033894;28;20520;-73
2022/06/16 06:49:32;;;;;;;17.00;3.10;;;;;;;;;;5033428;28;20477;-71
2022/06/16 06:51:59;;;;;;;14.20;3.20;;;;;;;;;;5033638;28;20804;-73
2022/06/16 06:54:26;;;;;;;14.83;2.80;;;;;;;;;;5034034;28;20439;-72
2022/06/16 06:56:54;;;;;;;14.30;3.20;;;;;;;;;;5033573;28;20930;-73
2022/06/16 06:59:22;;;;;;;13.27;3.00;;;;;;;;;;5033687;28;20833;-74
2022/06/16 07:01:51;;;;;;;13.13;2.77;;;;;;;;;;5033391;28;20436;-73
2022/06/16 07:04:20;;;;;;;15.20;2.80;;;;;;;;;;5033379;28;20465;-72
2022/06/16 07:06:49;;;;;;;14.07;2.60;;;;;;;;;;5033334;28;20942;-73
2022/06/16 07:09:18;;;;;;;15.87;2.37;;;;;;;;;;5033093;28;20483;-71
2022/06/16 07:11:45;;;;;;;14.30;3.10;;;;;;;;;;5033034;28;20468;-73
2022/06/16 07:14:12;;;;;;;21.60;3.07;;;;;;;;;;5033360;28;20535;-73
2022/06/16 07:16:43;;;;;;;12.93;2.60;;;;;;;;;;5033296;28;20825;-74
2022/06/16 07:19:11;;;;;;;13.67;2.37;;;;;;;;;;5033535;28;20468;-73
2022/06/16 07:21:39;;;;;;;17.73;2.27;;;;;;;;;;5032905;28;20456;-72
2022/06/16 07:24:07;;;;;;;12.40;2.33;;;;;;;;;;5033172;28;20440;-72
2022/06/16 07:26:35;;;;;;;13.60;2.13;;;;;;;;;;5033199;28;20933;-73
2022/06/16 07:29:02;;;;;;;13.70;2.30;;;;;;;;;;5032974;28;20573;-73
2022/06/16 07:31:30;;;;;;;13.93;2.70;;;;;;;;;;5033165;28;20444;-73
2022/06/16 07:33:59;;;;;;;12.87;2.70;;;;;;;;;;5032850;28;20439;-73
2022/06/16 07:36:26;;;;;;;13.40;2.30;;;;;;;;;;5032901;28;20445;-73
2022/06/16 07:38:55;;;;;;;13.47;2.60;;;;;;;;;;5033172;28;20437;-74
2022/06/16 07:41:38;;;;;;;12.77;2.47;;;;;;;;;;5032657;28;20432;-73
2022/06/16 07:44:07;;;;;;;15.50;3.00;;;;;;;;;;5032904;28;20476;-73
2022/06/16 07:46:35;;;;;;;13.53;2.23;;;;;;;;;;5032656;28;20433;-74
2022/06/16 07:49:05;;;;;;;12.80;2.50;;;;;;;;;;5032344;28;20476;-73
2022/06/16 07:51:32;;;;;;;12.70;2.20;;;;;;;;;;5032217;28;20432;-72
2022/06/16 07:54:01;;;;;;;15.80;4.30;;;;;;;;;;5032542;28;20460;-73
2022/06/16 07:56:28;;;;;;;17.40;5.30;;;;;;;;;;5032620;28;20441;-72
2022/06/16 07:58:56;;;;;;;15.73;5.27;;;;;;;;;;5032618;28;20436;-73
2022/06/16 08:01:23;;;;;;;20.30;5.27;;;;;;;;;;5031981;28;20802;-71
2022/06/16 08:03:50;;;;;;;15.43;2.33;;;;;;;;;;5032194;28;20457;-72
2022/06/16 08:06:23;;;;;;;12.83;2.37;;;;;;;;;;5032245;28;20445;-73
2022/06/16 08:08:50;;;;;;;16.13;2.80;;;;;;;;;;5032346;28;20480;-73
2022/06/16 08:14:04;;;;;;;12.77;2.30;;;;;;;;;;5032302;28;20435;-72
2022/06/16 08:16:33;;;;;;;13.70;2.87;;;;;;;;;;5032165;28;21019;-75
2022/06/16 08:19:00;;;;;;;17.07;3.50;;;;;;;;;;5032230;28;20452;-73
2022/06/16 08:21:29;;;;;;;17.40;3.07;;;;;;;;;;5032219;28;20869;-73
2022/06/16 08:23:57;;;;;;;15.20;2.30;;;;;;;;;;5032405;28;20496;-73
2022/06/16 08:26:25;;;;;;;12.80;2.00;;;;;;;;;;5031993;28;20447;-74
2022/06/16 08:28:53;;;;;;;15.27;2.67;;;;;;;;;;5031787;28;20482;-71
2022/06/16 08:31:21;;;;;;;13.70;2.80;;;;;;;;;;5032364;28;20795;-73
2022/06/16 08:33:49;;;;;;;16.30;3.80;;;;;;;;;;5031685;28;20501;-73
2022/06/16 08:36:16;;;;;;;13.63;2.93;;;;;;;;;;5032006;28;20943;-73
2022/06/16 08:38:45;;;;;;;18.60;2.83;;;;;;;;;;5032181;28;20439;-72
2022/06/16 08:41:16;;;;;;;15.20;2.90;;;;;;;;;;5031780;28;20947;-72
2022/06/16 08:43:48;;;;;;;16.90;3.13;;;;;;;;;;5031900;28;20801;-73
2022/06/16 08:46:17;;;;;;;13.63;2.40;;;;;;;;;;5032417;28;20443;-73
2022/06/16 08:48:48;;;;;;;16.07;2.40;;;;;;;;;;5031723;28;20483;-72
2022/06/16 08:51:20;;;;;;;13.27;2.70;;;;;;;;;;5032081;28;20443;-73
2022/06/16 08:54:02;;;;;;;14.73;3.10;;;;;;;;;;5031806;28;20440;-73
2022/06/16 08:56:36;;;;;;;12.30;2.43;;;;;;;;;;5032000;28;20434;-72
2022/06/16 08:59:09;;;;;;;12.10;2.33;;;;;;;;;;5031904;28;20447;-72
2022/06/16 09:01:38;;;;;;;18.00;4.20;;;;;;;;;;5031520;28;21033;-73
2022/06/16 09:04:09;;;;;;;16.70;2.50;;;;;;;;;;5032959;28;20494;-72
2022/06/16 09:06:40;;;;;;;15.00;2.73;;;;;;;;;;5035621;28;20445;-72
2022/06/16 09:09:11;;;;;;;12.60;2.10;;;;;;;;;;5035553;28;21007;-73
2022/06/16 09:11:41;;;;;;;16.17;3.07;;;;;;;;;;5035692;28;20469;-75
2022/06/16 09:17:15;;;;;;;13.70;2.97;;;;;;;;;;5035226;28;20443;-73
2022/06/16 09:19:47;;;;;;;15.43;2.90;;;;;;;;;;5035495;28;20436;-73
2022/06/16 09:22:21;;;;;;;12.90;2.67;;;;;;;;;;5035702;28;20437;-74
2022/06/16 09:25:01;;;;;;;16.93;3.17;;;;;;;;;;5035354;28;20438;-73
2022/06/16 09:27:30;;;;;;;12.50;2.20;;;;;;;;;;5035219;28;20440;-73
2022/06/16 09:30:02;;;;;;;16.33;2.97;;;;;;;;;;5035127;28;20486;-73
2022/06/16 09:32:32;;;;;;;13.53;2.40;;;;;;;;;;5035362;28;20437;-73
2022/06/16 09:35:02;;;;;;;15.77;2.83;;;;;;;;;;5035309;28;20523;-73
2022/06/16 09:37:35;;;;;;;15.70;2.93;;;;;;;;;;5035115;28;20934;-73
2022/06/16 09:40:06;;;;;;;14.10;2.30;;;;;;;;;;5035285;28;20951;-74
2022/06/16 09:42:36;;;;;;;15.30;2.70;;;;;;;;;;5035171;28;20438;-73
2022/06/16 09:45:09;;;;;;;12.67;2.37;;;;;;;;;;5035068;28;20434;-73
2022/06/16 09:47:39;;;;;;;12.20;2.20;;;;;;;;;;5034802;28;20523;-71
2022/06/16 09:50:09;;;;;;;15.50;2.80;;;;;;;;;;5034718;28;20471;-73
2022/06/16 09:52:39;;;;;;;16.83;2.90;;;;;;;;;;5034796;28;20520;-72
2022/06/16 09:55:10;;;;;;;15.90;2.10;;;;;;;;;;5034924;28;20439;-72
2022/06/16 09:57:39;;;;;;;14.80;2.80;;;;;;;;;;5034684;28;20885;-73
2022/06/16 10:00:10;;;;;;;13.10;2.30;;;;;;;;;;5034779;28;20469;-73
2022/06/16 10:02:41;;;;;;;15.90;2.90;;;;;;;;;;5034847;28;20455;-73
2022/06/16 10:05:13;;;;;;;13.60;2.60;;;;;;;;;;5034840;28;20528;-73
2022/06/16 10:07:44;;;;;;;21.70;6.37;;;;;;;;;;5034310;28;20441;-72
2022/06/16 10:10:16;;;;;;;14.13;2.50;;;;;;;;;;5034622;28;21010;-73
2022/06/16 10:12:49;;;;;;;16.40;2.93;;;;;;;;;;5034043;28;20473;-73
2022/06/16 10:15:21;;;;;;;15.60;2.80;;;;;;;;;;5033519;28;20433;-74
2022/06/16 10:17:51;;;;;;;17.90;3.50;;;;;;;;;;5034392;28;20438;-73
2022/06/16 10:20:21;;;;;;;13.90;2.30;;;;;;;;;;5034496;28;20786;-73
2022/06/16 10:22:52;;;;;;;15.03;2.70;;;;;;;;;;5034335;28;20527;-72
2022/06/16 10:25:22;;;;;;;12.97;2.30;;;;;;;;;;5034131;28;20476;-73
2022/06/16 10:27:51;;;;;;;13.00;2.50;;;;;;;;;;5033941;28;20440;-72
2022/06/16 10:30:20;;;;;;;21.90;2.60;;;;;;;;;;5033933;28;21022;-74
2022/06/16 10:32:49;;;;;;;13.20;2.60;;;;;;;;;;5034316;28;20820;-74
2022/06/16 10:35:18;;;;;;;14.23;2.93;;;;;;;;;;5034217;28;20450;-73
2022/06/16 10:37:47;;;;;;;16.60;3.03;;;;;;;;;;5033616;28;20446;-72
2022/06/16 10:40:16;;;;;;;16.80;2.77;;;;;;;;;;5033870;28;20922;-73
2022/06/16 10:42:46;;;;;;;12.90;2.30;;;;;;;;;;5034337;28;20429;-72
2022/06/16 10:45:15;;;;;;;16.37;2.43;;;;;;;;;;5033930;28;20445;-73
2022/06/16 10:47:48;;;;;;;15.80;2.93;;;;;;;;;;5033656;28;20471;-73
2022/06/16 10:50:18;;;;;;;13.63;2.40;;;;;;;;;;5033618;28;20473;-73
2022/06/16 10:52:49;;;;;;;12.77;2.30;;;;;;;;;;5033955;28;20441;-72
2022/06/16 10:55:20;;;;;;;13.33;2.30;;;;;;;;;;5034149;28;20831;-73
2022/06/16 10:57:49;;;;;;;15.80;3.53;;;;;;;;;;5033540;28;20438;-73
2022/06/16 11:00:20;;;;;;;12.87;2.33;;;;;;;;;;5033695;28;20446;-73
2022/06/16 11:03:00;;;;;;;12.27;2.20;;;;;;;;;;5033078;28;20463;-73
2022/06/16 11:05:28;;;;;;;14.67;2.47;;;;;;;;;;5033526;28;20446;-73
2022/06/16 11:08:05;;;;;;;13.27;2.57;;;;;;;;;;5033408;28;20453;-73
2022/06/16 11:10:33;;;;;;;14.00;2.53;;;;;;;;;;5033692;28;20493;-74
2022/06/16 11:13:03;;;;;;;16.10;2.20;;;;;;;;;;5033209;28;20447;-73
2022/06/16 11:15:32;;;;;;;13.63;2.00;;;;;;;;;;5033376;28;20438;-74
2022/06/16 11:18:01;;;;;;;14.03;3.00;;;;;;;;;;5033132;28;20447;-74
2022/06/16 11:20:32;;;;;;;16.73;3.70;;;;;;;;;;5033039;28;20438;-73
2022/06/16 11:23:00;;;;;;;15.07;3.40;;;;;;;;;;5033140;28;20438;-74
2022/06/16 11:25:30;;;;;;;16.10;3.47;;;;;;;;;;5032996;28;20442;-74
2022/06/16 11:27:58;;;;;;;14.30;2.57;;;;;;;;;;5033095;28;20982;-73
2022/06/16 11:30:36;;;;;;;15.30;2.27;;;;;;;;;;5033234;28;20480;-74
2022/06/16 11:33:05;;;;;;;12.20;1.83;;;;;;;;;;5033476;28;20759;-75
2022/06/16 11:35:41;;;;;;;14.30;3.10;;;;;;;;;;5032900;28;20446;-74
2022/06/16 11:38:13;;;;;;;14.70;2.73;;;;;;;;;;5032906;28;20449;-74
2022/06/16 11:40:44;;;;;;;13.80;2.40;;;;;;;;;;5032774;28;20499;-73
2022/06/16 11:43:20;;;;;;;13.93;2.17;;;;;;;;;;5032772;28;20438;-74
2022/06/16 11:45:51;;;;;;;13.33;2.60;;;;;;;;;;5032614;28;20511;-74
2022/06/16 11:48:23;;;;;;;13.90;2.83;;;;;;;;;;5032638;28;20443;-75
2022/06/16 11:50:57;;;;;;;13.10;2.10;;;;;;;;;;5032507;28;20504;-74
2022/06/16 11:53:38;;;;;;;15.30;2.70;;;;;;;;;;5032663;28;20533;-74
2022/06/16 11:56:10;;;;;;;16.73;2.10;;;;;;;;;;5032526;28;20442;-73
2022/06/16 11:58:53;;;;;;;13.63;2.43;;;;;;;;;;5032440;28;20449;-74
2022/06/16 12:01:25;;;;;;;13.57;2.57;;;;;;;;;;5030466;28;20532;-73
2022/06/16 12:04:01;;;;;;;15.17;2.10;;;;;;;;;;5031967;28;20508;-74
2022/06/16 12:06:37;;;;;;;13.13;2.13;;;;;;;;;;5032514;28;20437;-73
2022/06/16 12:09:10;;;;;;;14.57;2.37;;;;;;;;;;5032373;28;20458;-73
2022/06/16 12:11:41;;;;;;;17.90;3.90;;;;;;;;;;5032022;28;20992;-73
2022/06/16 12:14:13;;;;;;;16.90;2.43;;;;;;;;;;5032194;28;20444;-74
2022/06/16 12:16:51;;;;;;;12.40;2.20;;;;;;;;;;5031964;28;20447;-74
2022/06/16 12:19:30;;;;;;;14.07;2.20;;;;;;;;;;5032129;28;20440;-74
2022/06/16 12:22:02;;;;;;;12.93;2.80;;;;;;;;;;5032264;28;20432;-75
2022/06/16 12:24:32;;;;;;;15.13;2.67;;;;;;;;;;5032952;28;20434;-74
2022/06/16 12:27:01;;;;;;;14.23;2.63;;;;;;;;;;5032434;28;20442;-75
2022/06/16 12:29:34;;;;;;;13.43;2.20;;;;;;;;;;5032083;28;20484;-74
2022/06/16 12:32:06;;;;;;;14.33;2.00;;;;;;;;;;5032153;28;20439;-74
2022/06/16 12:34:37;;;;;;;14.60;1.90;;;;;;;;;;5032061;28;20439;-73
2022/06/16 12:37:06;;;;;;;14.20;2.50;;;;;;;;;;5032665;28;20508;-73
2022/06/16 12:39:37;;;;;;;12.97;2.60;;;;;;;;;;5030852;28;20940;-72
2022/06/16 12:42:06;;;;;;;12.80;2.30;;;;;;;;;;5032251;28;20440;-73
2022/06/16 12:44:36;;;;;;;20.20;5.80;;;;;;;;;;5031858;28;20447;-74
2022/06/16 12:47:07;;;;;;;12.50;2.03;;;;;;;;;;5031778;28;20431;-74
2022/06/16 12:49:36;;;;;;;13.33;2.40;;;;;;;;;;5031843;28;20492;-74
2022/06/16 12:52:07;;;;;;;12.40;2.10;;;;;;;;;;5031804;28;20442;-74
2022/06/16 12:54:38;;;;;;;13.63;2.20;;;;;;;;;;5031943;28;20447;-74
2022/06/16 12:57:08;;;;;;;14.30;2.20;;;;;;;;;;5031984;28;20444;-74
2022/06/16 12:59:37;;;;;;;14.70;2.50;;;;;;;;;;5031555;28;20457;-74
2022/06/16 13:02:07;;;;;;;15.87;1.90;;;;;;;;;;5031910;28;20436;-74
2022/06/16 13:04:36;;;;;;;13.40;2.67;;;;;;;;;;5031206;28;20463;-74
2022/06/16 13:07:12;;;;;;;16.30;3.07;;;;;;;;;;5031810;28;20434;-73
2022/06/16 13:09:40;;;;;;;11.97;1.87;;;;;;;;;;5031416;28;20500;-73
2022/06/16 13:12:14;;;;;;;13.77;2.30;;;;;;;;;;5031870;28;20972;-73
2022/06/16 13:14:43;;;;;;;13.30;2.70;;;;;;;;;;5032141;28;20438;-74
2022/06/16 13:17:14;;;;;;;13.00;2.27;;;;;;;;;;5031642;28;20438;-74
2022/06/16 13:19:43;;;;;;;15.07;2.63;;;;;;;;;;5031708;28;20520;-74
2022/06/16 13:22:21;;;;;;;14.70;2.40;;;;;;;;;;5031536;28;20787;-73
2022/06/16 13:24:53;;;;;;;13.90;2.20;;;;;;;;;;5032177;28;20481;-74
2022/06/16 13:27:24;;;;;;;14.53;2.20;;;;;;;;;;5031554;28;20447;-74
2022/06/16 13:30:00;;;;;;;13.20;2.20;;;;;;;;;;5031184;28;20479;-74
2022/06/16 13:32:37;;;;;;;13.20;2.03;;;;;;;;;;5031626;28;20446;-74
2022/06/16 13:35:29;;;;;;;14.60;2.40;;;;;;;;;;5031431;28;20459;-74
2022/06/16 13:38:12;;;;;;;13.60;2.40;;;;;;;;;;5031400;28;20446;-75
2022/06/16 13:40:40;;;;;;;12.13;2.00;;;;;;;;;;5019093;28;20459;-73
2022/06/16 13:43:09;;;;;;;13.80;2.10;;;;;;;;;;5031246;28;20449;-74
2022/06/16 13:45:41;;;;;;;15.90;2.17;;;;;;;;;;5031058;28;20954;-74
2022/06/16 13:48:21;;;;;;;14.63;1.80;;;;;;;;;;5031434;28;20454;-74
2022/06/16 13:50:49;;;;;;;12.83;2.10;;;;;;;;;;5033533;28;20477;-74
2022/06/16 13:53:21;;;;;;;12.70;2.40;;;;;;;;;;5034709;28;20901;-74
2022/06/16 13:55:55;;;;;;;12.77;2.30;;;;;;;;;;5034539;28;20438;-75
2022/06/16 13:58:24;;;;;;;14.20;2.00;;;;;;;;;;5035033;28;20440;-75
2022/06/16 14:01:10;;;;;;;14.80;3.10;;;;;;;;;;5035200;28;20450;-74
2022/06/16 14:03:47;;;;;;;15.60;3.50;;;;;;;;;;5034051;28;20463;-73
2022/06/16 14:06:15;;;;;;;12.67;1.93;;;;;;;;;;5034653;28;20478;-73
2022/06/16 14:08:46;;;;;;;12.90;1.83;;;;;;;;;;5034790;28;20513;-74
2022/06/16 14:11:18;;;;;;;14.03;2.10;;;;;;;;;;5034840;28;20583;-74
2022/06/16 14:13:47;;;;;;;14.93;2.77;;;;;;;;;;5034363;28;20435;-74
2022/06/16 14:16:23;;;;;;;14.20;2.40;;;;;;;;;;5034564;28;20442;-74
2022/06/16 14:19:02;;;;;;;12.77;2.20;;;;;;;;;;5034738;28;20460;-74
2022/06/16 14:21:33;;;;;;;12.60;2.13;;;;;;;;;;5034629;28;20451;-74
2022/06/16 14:24:05;;;;;;;14.50;2.10;;;;;;;;;;5034521;28;20809;-74
2022/06/16 14:26:34;;;;;;;12.80;2.10;;;;;;;;;;5034480;28;20440;-74
2022/06/16 14:29:03;;;;;;;15.10;2.27;;;;;;;;;;5034133;28;20447;-74
2022/06/16 14:31:32;;;;;;;12.10;1.93;;;;;;;;;;5034422;28;20478;-74
2022/06/16 14:34:03;;;;;;;12.53;2.13;;;;;;;;;;5034265;28;20459;-74
2022/06/16 14:36:39;;;;;;;13.23;2.63;;;;;;;;;;5034025;28;20456;-73
2022/06/16 14:39:09;;;;;;;12.50;1.90;;;;;;;;;;5034124;28;20437;-74
2022/06/16 14:41:40;;;;;;;20.93;4.77;;;;;;;;;;5033697;28;20445;-74
2022/06/16 14:44:10;;;;;;;12.57;2.20;;;;;;;;;;5034061;28;20525;-74
2022/06/16 14:46:43;;;;;;;14.50;1.93;;;;;;;;;;5033968;28;20530;-73
2022/06/16 14:49:14;;;;;;;13.07;2.00;;;;;;;;;;5033955;28;20806;-74
2022/06/16 14:51:43;;;;;;;13.30;2.17;;;;;;;;;;5033529;28;20490;-73
2022/06/16 14:54:15;;;;;;;15.00;1.90;;;;;;;;;;5033617;28;20450;-74
2022/06/16 14:56:52;;;;;;;12.10;1.90;;;;;;;;;;5034013;28;20430;-73
2022/06/16 14:59:21;;;;;;;12.10;1.80;;;;;;;;;;5033785;28;20512;-73
2022/06/16 15:01:49;;;;;;;17.30;2.57;;;;;;;;;;5032752;28;20457;-74
2022/06/16 15:04:22;;;;;;;16.67;1.90;;;;;;;;;;5033098;28;20459;-74
2022/06/16 15:06:50;;;;;;;17.73;2.20;;;;;;;;;;5033463;28;20949;-75
2022/06/16 15:09:21;;;;;;;13.80;2.03;;;;;;;;;;5033677;28;20437;-74
2022/06/16 15:11:49;;;;;;;15.10;2.70;;;;;;;;;;5032834;28;20850;-75